Ευχαριστούμε που συμβάλλετε στη διατήρηση της σελίδας μας.

Thank you for your donations, it really helps to maintain the page.


Στατιστικά Καιρού & Άλλα..









Δείκτης Πυρκαγιάς (FWI)

Καστελόκαμπος Ρίον more information Kastelokampos Rion


Κάμερα Ρομανού more information Romanos Cam


Ραντάρ Κεραυνών more information blitzortung!


Ραντάρ Βροχής more information rain snow radar


Επισκεφθείτε άλλες ιστοσελίδες καιρού μας:

Meteopatras.Eu in
Euweather NetworkMeteopatras.Eu in Euweather Network

Weather CloudWeather Cloud

PWS WeatherPWS Weather

Awekas NetWeather data from station Patra-Ketx

WunderGroundWeather data from station Patra-Ketx




Ιδιοκτησία και Επίβλεψη : Μουλάς Αντρέας

 Πάτρα, Ελλάδα - Γ.Πλάτος : 38°14'21" Β - Γ.Μήκος : 21°45'5" Α - Υψόμετρο : 56μ

Select another period ( hide this area )

Μονάδες Περίοδο Custom range Directly to
Μετρικό Αγγλικό Και τα δύο
Καθημερινά Εβδομαδιαία Μηνιαία Ετήσια
use both date-selectors for a custom range
previous Ημέρα
With this date

WeatherUnderground graphs for this period ( click here )


Καθημερινά Περίληψη για Τετάρτη 20 Φεβρουάριος 2019
Ώρα Temp. ( °C ) Dew pt. ( °C ) Άνεμος ( km/h ) απο Ριπή ( km/h ) Πίεση ( hPa ) Humid.( % ) Rainrate ( cm ) Solar ( W/m2 )
Υψηλή12,5 7,4 7,4 ΝΑ ( 202/325 ) 11,3 1022,3 80 - 190
Μέση Τιμή11,0 6,7 3,0 ΝΑ #62/109 5,1 1021,5 75 - 63 #20/109
Χαμηλή10,4 5,8 -   0,0 1021,0 69 -  
Καθημερινά Tabular details for Τετάρτη 20 Φεβρουάριος 2019
Ώρα Temp. ( °C ) Dew pt. ( °C ) Άνεμος ( km/h ) απο Ριπή ( km/h ) Πίεση ( hPa ) Humid.( % ) Rainrate ( cm ) Solar ( W/m2 )
00:04 11,1 7,4 1,6 ΝΑ 5,6 1021,9 78 - -
00:09 11,1 7,4 3,4 ΝΑ 5,6 1021,9 78 - -
00:14 11,1 7,4 3,2 ΝΑ 5,6 1021,9 78 - -
00:19 11,0 7,3 2,7 ΝΑ 3,7 1021,9 78 - -
00:24 10,9 7,4 5,8 ΑΝΑ 7,4 1021,8 79 - -
00:29 10,9 7,3 4,2 ΑΝΑ 6,4 1021,8 78 - -
00:34 11,0 7,3 4,2 ΝΑ 5,6 1021,8 78 - -
00:39 11,0 7,3 3,9 ΝΑ 5,6 1021,8 78 - -
00:44 11,0 7,3 3,4 ΝΑ 5,6 1021,8 78 - -
00:49 10,9 7,3 4,7 ΑΝΑ 6,4 1021,8 78 - -
00:54 10,9 7,2 5,6 ΑΝΑ 6,4 1021,7 78 - -
00:59 10,9 7,2 4,0 ΝΑ 5,6 1021,7 78 - -
01:04 10,8 7,2 4,0 ΝΑ 5,6 1021,7 78 - -
01:09 10,8 7,3 3,1 ΝΑ 5,6 1021,7 79 - -
01:14 10,7 7,2 2,7 ΝΑ 5,6 1021,7 79 - -
01:19 10,7 7,2 3,5 ΝΑ 5,6 1021,7 79 - -
01:24 10,6 7,1 7,4 ΝΑ 11,1 1021,7 79 - -
01:29 10,6 7,1 6,0 ΑΝΑ 9,7 1021,7 79 - -
01:34 10,5 7,2 3,2 ΑΝΑ 5,6 1021,7 80 - -
01:39 10,5 7,2 3,1 ΝΑ 5,6 1021,7 80 - -
01:44 10,4 7,2 3,5 ΑΝΑ 5,6 1021,7 80 - -
01:49 10,5 7,2 2,4 Ανατολή 5,6 1021,7 80 - -
01:54 10,6 7,1 3,9 Ανατολή 5,6 1021,7 79 - -
01:59 10,6 7,1 2,7 Ανατολή 5,6 1021,7 79 - -
02:04 10,6 7,1 2,4 Ανατολή 3,7 1021,7 79 - -
02:09 10,6 7,1 3,5 ΑΝΑ 5,6 1021,7 79 - -
02:14 10,7 7,2 4,3 ΑΝΑ 5,6 1021,7 79 - -
02:19 10,7 7,0 3,1 ΑΝΑ 5,6 1021,7 78 - -
02:24 10,7 7,1 3,5 ΑΝΑ 5,6 1021,6 78 - -
02:29 10,7 7,1 2,4 ΑΝΑ 3,7 1021,6 78 - -
02:34 10,7 7,0 3,7 ΑΝΑ 5,6 1021,5 78 - -
02:39 10,7 7,0 0,8 ΑΝΑ 5,6 1021,5 78 - -
02:44 10,7 7,0 1,1 ΑΝΑ 3,7 1021,5 78 - -
02:49 10,7 7,0 0,8 ΑΝΑ 1,9 1021,5 78 - -
02:54 10,7 7,2 1,3 ΑΝΑ 5,6 1021,4 79 - -
02:59 10,7 7,2 2,4 ΑΝΑ 5,6 1021,4 79 - -
03:04 10,7 7,2   Άπνοια 1,9 1021,5 79 - -
03:09 10,7 7,2 4,0 ΑΝΑ 6,4 1021,4 79 - -
03:14 10,7 7,2 2,7 ΑΝΑ 5,6 1021,4 79 - -
03:19 10,8 7,3 2,7 ΑΝΑ 3,7 1021,4 79 - -
03:24 10,8 7,3 1,6 ΑΝΑ 3,7 1021,4 79 - -
03:29 10,9 7,2 3,4 ΝΑ 5,6 1021,4 78 - -
03:34 10,9 7,2 4,5 ΝΑ 6,4 1021,3 78 - -
03:39 10,9 7,2 5,5 ΝΑ 6,4 1021,3 78 - -
03:44 10,9 7,0 4,0 ΝΑ 5,6 1021,2 77 - -
03:49 10,9 6,9 2,4 ΝΑ 5,6 1021,1 76 - -
03:54 10,9 6,9 3,4 ΝΑ 5,6 1021,2 76 - -
03:59 10,9 6,7 4,0 ΝΑ 6,4 1021,2 75 - -
04:04 10,9 6,5 3,2 ΝΑ 5,6 1021,2 74 - -
04:09 10,9 6,2 3,2 ΝΑ 5,6 1021,1 73 - -
04:14 10,9 6,1   Άπνοια   1021,3 72 - -
04:19 10,9 6,1   Άπνοια   1021,3 72 - -
04:24 10,9 6,1 0,5 ΝΑ 3,2 1021,2 72 - -
04:29 10,9 6,1 2,1 ΝΝΑ 5,6 1021,2 72 - -
04:34 10,9 6,1 4,0 ΝΑ 5,6 1021,1 72 - -
04:39 11,0 6,2 3,4 ΝΑ 4,8 1021,2 72 - -
04:44 10,9 6,1 3,9 ΝΑ 5,6 1021,2 72 - -
04:49 10,9 5,9 4,3 ΝΑ 6,4 1021,2 71 - -
04:54 10,9 5,9 3,4 ΝΑ 5,6 1021,1 71 - -
04:59 10,9 5,8 4,3 ΝΑ 7,4 1021,2 71 - -
05:04 10,9 5,8 4,8 ΝΑ 7,4 1021,2 71 - -
05:09 10,9 5,8 4,3 ΝΑ 7,4 1021,2 71 - -
05:14 10,9 6,1 5,8 ΝΑ 6,4 1021,2 72 - -
05:19 11,0 6,2 4,5 ΝΑ 6,4 1021,2 72 - -
05:24 11,0 6,2 6,9 ΑΝΑ 11,3 1021,1 72 - -
05:29 11,1 6,2 5,8 ΝΑ 11,1 1021,1 72 - -
05:34 11,1 6,3 2,3 ΝΑ 5,6 1021,1 72 - -
05:39 11,1 6,3 3,4 ΝΑ 5,6 1021,1 72 - -
05:44 11,1 6,3 3,5 ΝΑ 5,6 1021,1 72 - -
05:49 11,1 6,1 3,7 ΝΑ 6,4 1021,2 71 - -
05:54 11,1 6,1 2,6 ΝΑ 5,6 1021,1 71 - -
05:59 11,1 6,1 4,2 ΝΑ 5,6 1021,1 71 - -
06:04 11,1 6,1 2,4 ΝΑ 3,7 1021,1 71 - -
06:09 11,1 6,1 1,9 ΝΑ 3,7 1021,1 71 - -
06:14 11,1 6,1 1,8 Νότος 3,7 1021,1 71 - -
06:19 11,1 6,1 0,8 Νότος 3,2 1021,1 71 - -
06:24 11,1 6,1 2,3 ΝΔ 5,6 1021,2 71 - -
06:29 11,1 6,1 6,0 ΝΝΑ 7,4 1021,1 71 - -
06:34 11,2 6,1 6,3 ΝΑ 7,4 1021,1 71 - -
06:39 11,2 6,3 5,1 ΝΑ 6,4 1021,0 72 - -
06:44 11,2 6,2 3,5 ΑΝΑ 5,6 1021,1 71 - -
06:49 11,2 6,1 3,5 ΝΑ 7,4 1021,1 71 - -
06:54 11,2 6,1 0,6 ΝΑ 3,2 1021,1 71 - -
06:59 11,2 6,3 2,7 ΝΑ 5,6 1021,1 72 - -
07:04 11,2 6,3 3,7 ΝΑ 5,6 1021,1 72 - -
07:09 11,2 6,3 2,9 Νότος 3,7 1021,1 72 - -
07:14 11,2 6,3 2,3 ΝΑ 5,6 1021,2 72 - -
07:19 11,2 6,3 1,6 ΝΑ 3,7 1021,2 72 - -
07:24 11,2 6,3 1,0 ΝΑ 3,2 1021,3 72 - -
07:29 11,2 6,3 1,8 ΝΔ 5,6 1021,3 72 - 5
07:34 11,2 6,3 0,2 ΝΔ 3,2 1021,5 72 - 9
07:39 11,2 6,3   Άπνοια 1,9 1021,5 72 - 12
07:44 11,2 6,3 4,2 ΝΔ 6,4 1021,6 72 - 16
07:49 11,2 6,3 4,3 ΝΔ 5,6 1021,6 72 - 19
07:54 11,2 6,3 3,9 ΝΝΔ 5,6 1021,7 72 - 23
07:59 11,2 6,3 2,9 ΝΑ 5,6 1021,7 72 - 30
08:04 11,3 6,4 2,4 ΝΑ 5,6 1021,8 72 - 39
08:09 11,3 6,4 1,1 ΝΑ 1,9 1021,8 72 - 47
08:14 11,4 6,5   Άπνοια   1021,9 72 - 62
08:19 11,4 6,6   Άπνοια   1021,9 72 - 67
08:22 11,5 6,4   Άπνοια   1022,0 71 - 69
08:29 11,7 6,6 0,2 ΝΑ 1,6 1022,1 71 - 84
08:34 11,8 6,7 0,8 ΝΑ 3,7 1022,1 71 - 76
08:39 11,9 6,8 2,7 ΝΑ 5,6 1022,2 71 - 79
08:44 12,0 6,7 2,6 ΝΑ 5,6 1022,2 70 - 88
08:49 12,1 6,8 1,8 ΝΑ 3,7 1022,2 70 - 190
08:54 12,3 6,9   Άπνοια   1022,3 70 - 105
08:59 12,4 7,1 1,8 ΝΑ 3,2 1022,3 70 - 114
09:04 12,5 6,9 2,1 ΝΑ 3,7 1022,3 69 - 128
Καθημερινά Περίληψη για Τετάρτη 20 Φεβρουάριος 2019
Ώρα Temp. ( °C ) Dew pt. ( °C ) Άνεμος ( km/h ) απο Ριπή ( km/h ) Πίεση ( hPa ) Humid.( % ) Rainrate ( cm ) Solar ( W/m2 )
Υψηλή12,5 7,4 7,4 ΝΑ ( 202/325 ) 11,3 1022,3 80 - 190
Μέση Τιμή11,0 6,7 3,0 ΝΑ #62/109 5,1 1021,5 75 - 63 #20/109
Χαμηλή10,4 5,8 -   0,0 1021,0 69 -  
Καθημερινά Tabular details for Τετάρτη 20 Φεβρουάριος 2019
Ώρα Temp. ( °C ) Dew pt. ( °C ) Άνεμος ( km/h ) απο Ριπή ( km/h ) Πίεση ( hPa ) Humid.( % ) Rainrate ( cm ) Solar ( W/m2 )
00:04 11,1 7,4 1,6 ΝΑ 5,6 1021,9 78 - -
00:09 11,1 7,4 3,4 ΝΑ 5,6 1021,9 78 - -
00:14 11,1 7,4 3,2 ΝΑ 5,6 1021,9 78 - -
00:19 11,0 7,3 2,7 ΝΑ 3,7 1021,9 78 - -
00:24 10,9 7,4 5,8 ΑΝΑ 7,4 1021,8 79 - -
00:29 10,9 7,3 4,2 ΑΝΑ 6,4 1021,8 78 - -
00:34 11,0 7,3 4,2 ΝΑ 5,6 1021,8 78 - -
00:39 11,0 7,3 3,9 ΝΑ 5,6 1021,8 78 - -
00:44 11,0 7,3 3,4 ΝΑ 5,6 1021,8 78 - -
00:49 10,9 7,3 4,7 ΑΝΑ 6,4 1021,8 78 - -
00:54 10,9 7,2 5,6 ΑΝΑ 6,4 1021,7 78 - -
00:59 10,9 7,2 4,0 ΝΑ 5,6 1021,7 78 - -
01:04 10,8 7,2 4,0 ΝΑ 5,6 1021,7 78 - -
01:09 10,8 7,3 3,1 ΝΑ 5,6 1021,7 79 - -
01:14 10,7 7,2 2,7 ΝΑ 5,6 1021,7 79 - -
01:19 10,7 7,2 3,5 ΝΑ 5,6 1021,7 79 - -
01:24 10,6 7,1 7,4 ΝΑ 11,1 1021,7 79 - -
01:29 10,6 7,1 6,0 ΑΝΑ 9,7 1021,7 79 - -
01:34 10,5 7,2 3,2 ΑΝΑ 5,6 1021,7 80 - -
01:39 10,5 7,2 3,1 ΝΑ 5,6 1021,7 80 - -
01:44 10,4 7,2 3,5 ΑΝΑ 5,6 1021,7 80 - -
01:49 10,5 7,2 2,4 Ανατολή 5,6 1021,7 80 - -
01:54 10,6 7,1 3,9 Ανατολή 5,6 1021,7 79 - -
01:59 10,6 7,1 2,7 Ανατολή 5,6 1021,7 79 - -
02:04 10,6 7,1 2,4 Ανατολή 3,7 1021,7 79 - -
02:09 10,6 7,1 3,5 ΑΝΑ 5,6 1021,7 79 - -
02:14 10,7 7,2 4,3 ΑΝΑ 5,6 1021,7 79 - -
02:19 10,7 7,0 3,1 ΑΝΑ 5,6 1021,7 78 - -
02:24 10,7 7,1 3,5 ΑΝΑ 5,6 1021,6 78 - -
02:29 10,7 7,1 2,4 ΑΝΑ 3,7 1021,6 78 - -
02:34 10,7 7,0 3,7 ΑΝΑ 5,6 1021,5 78 - -
02:39 10,7 7,0 0,8 ΑΝΑ 5,6 1021,5 78 - -
02:44 10,7 7,0 1,1 ΑΝΑ 3,7 1021,5 78 - -
02:49 10,7 7,0 0,8 ΑΝΑ 1,9 1021,5 78 - -
02:54 10,7 7,2 1,3 ΑΝΑ 5,6 1021,4 79 - -
02:59 10,7 7,2 2,4 ΑΝΑ 5,6 1021,4 79 - -
03:04 10,7 7,2   Άπνοια 1,9 1021,5 79 - -
03:09 10,7 7,2 4,0 ΑΝΑ 6,4 1021,4 79 - -
03:14 10,7 7,2 2,7 ΑΝΑ 5,6 1021,4 79 - -
03:19 10,8 7,3 2,7 ΑΝΑ 3,7 1021,4 79 - -
03:24 10,8 7,3 1,6 ΑΝΑ 3,7 1021,4 79 - -
03:29 10,9 7,2 3,4 ΝΑ 5,6 1021,4 78 - -
03:34 10,9 7,2 4,5 ΝΑ 6,4 1021,3 78 - -
03:39 10,9 7,2 5,5 ΝΑ 6,4 1021,3 78 - -
03:44 10,9 7,0 4,0 ΝΑ 5,6 1021,2 77 - -
03:49 10,9 6,9 2,4 ΝΑ 5,6 1021,1 76 - -
03:54 10,9 6,9 3,4 ΝΑ 5,6 1021,2 76 - -
03:59 10,9 6,7 4,0 ΝΑ 6,4 1021,2 75 - -
04:04 10,9 6,5 3,2 ΝΑ 5,6 1021,2 74 - -
04:09 10,9 6,2 3,2 ΝΑ 5,6 1021,1 73 - -
04:14 10,9 6,1   Άπνοια   1021,3 72 - -
04:19 10,9 6,1   Άπνοια   1021,3 72 - -
04:24 10,9 6,1 0,5 ΝΑ 3,2 1021,2 72 - -
04:29 10,9 6,1 2,1 ΝΝΑ 5,6 1021,2 72 - -
04:34 10,9 6,1 4,0 ΝΑ 5,6 1021,1 72 - -
04:39 11,0 6,2 3,4 ΝΑ 4,8 1021,2 72 - -
04:44 10,9 6,1 3,9 ΝΑ 5,6 1021,2 72 - -
04:49 10,9 5,9 4,3 ΝΑ 6,4 1021,2 71 - -
04:54 10,9 5,9 3,4 ΝΑ 5,6 1021,1 71 - -
04:59 10,9 5,8 4,3 ΝΑ 7,4 1021,2 71 - -
05:04 10,9 5,8 4,8 ΝΑ 7,4 1021,2 71 - -
05:09 10,9 5,8 4,3 ΝΑ 7,4 1021,2 71 - -
05:14 10,9 6,1 5,8 ΝΑ 6,4 1021,2 72 - -
05:19 11,0 6,2 4,5 ΝΑ 6,4 1021,2 72 - -
05:24 11,0 6,2 6,9 ΑΝΑ 11,3 1021,1 72 - -
05:29 11,1 6,2 5,8 ΝΑ 11,1 1021,1 72 - -
05:34 11,1 6,3 2,3 ΝΑ 5,6 1021,1 72 - -
05:39 11,1 6,3 3,4 ΝΑ 5,6 1021,1 72 - -
05:44 11,1 6,3 3,5 ΝΑ 5,6 1021,1 72 - -
05:49 11,1 6,1 3,7 ΝΑ 6,4 1021,2 71 - -
05:54 11,1 6,1 2,6 ΝΑ 5,6 1021,1 71 - -
05:59 11,1 6,1 4,2 ΝΑ 5,6 1021,1 71 - -
06:04 11,1 6,1 2,4 ΝΑ 3,7 1021,1 71 - -
06:09 11,1 6,1 1,9 ΝΑ 3,7 1021,1 71 - -
06:14 11,1 6,1 1,8 Νότος 3,7 1021,1 71 - -
06:19 11,1 6,1 0,8 Νότος 3,2 1021,1 71 - -
06:24 11,1 6,1 2,3 ΝΔ 5,6 1021,2 71 - -
06:29 11,1 6,1 6,0 ΝΝΑ 7,4 1021,1 71 - -
06:34 11,2 6,1 6,3 ΝΑ 7,4 1021,1 71 - -
06:39 11,2 6,3 5,1 ΝΑ 6,4 1021,0 72 - -
06:44 11,2 6,2 3,5 ΑΝΑ 5,6 1021,1 71 - -
06:49 11,2 6,1 3,5 ΝΑ 7,4 1021,1 71 - -
06:54 11,2 6,1 0,6 ΝΑ 3,2 1021,1 71 - -
06:59 11,2 6,3 2,7 ΝΑ 5,6 1021,1 72 - -
07:04 11,2 6,3 3,7 ΝΑ 5,6 1021,1 72 - -
07:09 11,2 6,3 2,9 Νότος 3,7 1021,1 72 - -
07:14 11,2 6,3 2,3 ΝΑ 5,6 1021,2 72 - -
07:19 11,2 6,3 1,6 ΝΑ 3,7 1021,2 72 - -
07:24 11,2 6,3 1,0 ΝΑ 3,2 1021,3 72 - -
07:29 11,2 6,3 1,8 ΝΔ 5,6 1021,3 72 - 5
07:34 11,2 6,3 0,2 ΝΔ 3,2 1021,5 72 - 9
07:39 11,2 6,3   Άπνοια 1,9 1021,5 72 - 12
07:44 11,2 6,3 4,2 ΝΔ 6,4 1021,6 72 - 16
07:49 11,2 6,3 4,3 ΝΔ 5,6 1021,6 72 - 19
07:54 11,2 6,3 3,9 ΝΝΔ 5,6 1021,7 72 - 23
07:59 11,2 6,3 2,9 ΝΑ 5,6 1021,7 72 - 30
08:04 11,3 6,4 2,4 ΝΑ 5,6 1021,8 72 - 39
08:09 11,3 6,4 1,1 ΝΑ 1,9 1021,8 72 - 47
08:14 11,4 6,5   Άπνοια   1021,9 72 - 62
08:19 11,4 6,6   Άπνοια   1021,9 72 - 67
08:22 11,5 6,4   Άπνοια   1022,0 71 - 69
08:29 11,7 6,6 0,2 ΝΑ 1,6 1022,1 71 - 84
08:34 11,8 6,7 0,8 ΝΑ 3,7 1022,1 71 - 76
08:39 11,9 6,8 2,7 ΝΑ 5,6 1022,2 71 - 79
08:44 12,0 6,7 2,6 ΝΑ 5,6 1022,2 70 - 88
08:49 12,1 6,8 1,8 ΝΑ 3,7 1022,2 70 - 190
08:54 12,3 6,9   Άπνοια   1022,3 70 - 105
08:59 12,4 7,1 1,8 ΝΑ 3,2 1022,3 70 - 114
09:04 12,5 6,9 2,1 ΝΑ 3,7 1022,3 69 - 128

Download your copy of this data-set  here

Our weather-data as stored at Weather Underground. Script developed by Jim McMurry. Προσαρμοσμένος για το πρότυπο του Leuven-Template.eu

Μπορείτε να βρείτε πληροφορίες καιρού μας και σε:

European Weather Network

WeatherCloud

Weather Underground

Δύκτιο Σταθμών Ελλάδας

AWEKAS

HAMweather, WeatherForYou, PWS Weather

MeteoPatras.Eu